createdAt,value
2023-02-08T00:00:44.812Z,103346.16
2023-02-08T00:03:12.169Z,103336.56
2023-02-08T00:05:39.368Z,103342.69
2023-02-08T00:08:06.390Z,103353.28
2023-02-08T00:10:33.410Z,103346.47
2023-02-08T00:13:00.507Z,103354.50
2023-02-08T00:15:27.562Z,103359.97
2023-02-08T00:17:54.664Z,103362.78
2023-02-08T00:20:21.640Z,103356.84
2023-02-08T00:22:51.987Z,103360.38
2023-02-08T00:25:19.637Z,103354.28
2023-02-08T00:27:46.592Z,103359.31
2023-02-08T00:30:13.620Z,103355.59
2023-02-08T00:32:40.719Z,103353.84
2023-02-08T00:35:08.208Z,103351.38
2023-02-08T00:37:35.128Z,103349.53
2023-02-08T00:40:02.889Z,103353.91
2023-02-08T00:42:30.519Z,103350.63
2023-02-08T00:44:57.863Z,103345.72
2023-02-08T00:47:25.418Z,103338.13
2023-02-08T00:49:52.544Z,103334.84
2023-02-08T00:52:19.839Z,103328.81
2023-02-08T00:54:47.348Z,103341.13
2023-02-08T00:57:14.523Z,103339.34
2023-02-08T00:59:41.757Z,103338.50
2023-02-08T01:02:09.544Z,103338.59
2023-02-08T01:04:36.642Z,103340.47
2023-02-08T01:07:03.675Z,103348.41
2023-02-08T01:09:31.197Z,103347.56
2023-02-08T01:11:58.116Z,103335.41
2023-02-08T01:14:25.501Z,103333.75
2023-02-08T01:16:53.405Z,103327.63
2023-02-08T01:19:20.630Z,103332.84
2023-02-08T01:21:49.620Z,103339.06
2023-02-08T01:24:16.926Z,103319.13
2023-02-08T01:26:44.158Z,103324.53
2023-02-08T01:29:11.349Z,103328.19
2023-02-08T01:31:39.382Z,103324.66
2023-02-08T01:34:07.111Z,103317.56
2023-02-08T01:36:34.335Z,103300.88
2023-02-08T01:39:01.481Z,103300.88
2023-02-08T01:41:30.088Z,103299.22
2023-02-08T01:43:57.619Z,103297.50
2023-02-08T01:46:24.939Z,103293.44
2023-02-08T01:48:52.444Z,103293.72
2023-02-08T01:51:22.467Z,103290.28
2023-02-08T01:53:50.607Z,103297.47
2023-02-08T01:56:21.272Z,103294.13
2023-02-08T01:58:52.559Z,103297.66
2023-02-08T02:01:19.774Z,103293.16
2023-02-08T02:03:46.974Z,103296.50
2023-02-08T02:06:16.549Z,103288.66
2023-02-08T02:08:48.024Z,103302.63
2023-02-08T02:11:15.189Z,103296.56
2023-02-08T02:13:42.292Z,103291.28
2023-02-08T02:16:09.127Z,103288.53
2023-02-08T02:18:36.027Z,103293.75
2023-02-08T02:21:03.258Z,103289.44
2023-02-08T02:23:33.192Z,103295.75
2023-02-08T02:26:03.247Z,103300.25
2023-02-08T02:28:33.239Z,103290.75
2023-02-08T02:31:03.412Z,103284.78
2023-02-08T02:33:33.601Z,103284.94
2023-02-08T02:36:03.669Z,103279.91
2023-02-08T02:38:38.321Z,103264.25
2023-02-08T02:41:05.628Z,103269.53
2023-02-08T02:43:43.321Z,103265.16
2023-02-08T02:46:13.381Z,103261.56
2023-02-08T02:48:43.329Z,103255.47
2023-02-08T02:51:13.452Z,103247.66
2023-02-08T02:53:43.530Z,103241.66
2023-02-08T02:56:13.559Z,103240.81
2023-02-08T02:58:41.050Z,103243.41
2023-02-08T03:01:08.081Z,103230.41
2023-02-08T03:03:35.252Z,103224.41
2023-02-08T03:06:05.535Z,103232.31
2023-02-08T03:08:35.445Z,103228.22
2023-02-08T03:11:06.157Z,103225.75
2023-02-08T03:13:33.532Z,103227.44
2023-02-08T03:16:02.461Z,103218.63
2023-02-08T03:18:32.400Z,103214.25
2023-02-08T03:21:02.731Z,103225.75
2023-02-08T03:23:32.140Z,103219.63
2023-02-08T03:26:00.373Z,103222.50
2023-02-08T03:28:30.924Z,103226.94
2023-02-08T03:31:03.869Z,103220.06
2023-02-08T03:33:33.832Z,103210.50
2023-02-08T03:36:03.834Z,103210.44
2023-02-08T03:38:34.183Z,103199.03
2023-02-08T03:41:02.796Z,103204.19
2023-02-08T03:43:34.236Z,103208.56
2023-02-08T03:46:04.257Z,103200.09
2023-02-08T03:48:31.784Z,103208.97
2023-02-08T03:50:59.118Z,103204.72
2023-02-08T03:53:27.055Z,103211.88
2023-02-08T03:55:58.562Z,103199.84
2023-02-08T03:58:28.324Z,103214.63
2023-02-08T04:00:58.478Z,103213.75
2023-02-08T04:03:27.678Z,103210.09
2023-02-08T04:05:55.031Z,103205.69
2023-02-08T04:08:22.249Z,103201.44
2023-02-08T04:10:49.193Z,103212.09
2023-02-08T04:13:16.191Z,103204.47
2023-02-08T04:15:44.550Z,103205.41
2023-02-08T04:18:11.763Z,103208.03
2023-02-08T04:20:38.979Z,103216.88
2023-02-08T04:23:06.089Z,103203.28
2023-02-08T04:25:33.171Z,103203.44
2023-02-08T04:28:00.186Z,103207.00
2023-02-08T04:30:27.161Z,103211.41
2023-02-08T04:32:54.342Z,103201.00
2023-02-08T04:35:21.295Z,103194.03
2023-02-08T04:37:48.559Z,103194.03
2023-02-08T04:40:15.536Z,103197.53
2023-02-08T04:42:42.410Z,103199.13
2023-02-08T04:45:10.162Z,103186.16
2023-02-08T04:47:37.083Z,103180.22
2023-02-08T04:50:04.381Z,103188.97
2023-02-08T04:52:31.376Z,103193.41
2023-02-08T04:54:58.264Z,103194.19
2023-02-08T04:57:25.199Z,103192.44
2023-02-08T04:59:51.998Z,103191.75
2023-02-08T05:02:18.892Z,103183.25
2023-02-08T05:04:45.756Z,103187.75
2023-02-08T05:07:12.720Z,103182.41
2023-02-08T05:09:39.584Z,103190.28
2023-02-08T05:12:06.572Z,103182.56
2023-02-08T05:14:33.515Z,103187.75
2023-02-08T05:17:00.396Z,103191.19
2023-02-08T05:19:27.284Z,103187.66
2023-02-08T05:21:54.366Z,103179.06
2023-02-08T05:24:21.267Z,103175.78
2023-02-08T05:26:48.063Z,103171.41
2023-02-08T05:29:15.695Z,103180.19
2023-02-08T05:31:42.783Z,103179.34
2023-02-08T05:34:09.811Z,103190.59
2023-02-08T05:36:36.720Z,103194.25
2023-02-08T05:39:03.723Z,103203.03
2023-02-08T05:41:30.624Z,103202.25
2023-02-08T05:43:57.506Z,103193.66
2023-02-08T05:46:24.513Z,103202.47
2023-02-08T05:48:51.672Z,103206.94
2023-02-08T05:51:18.524Z,103204.31
2023-02-08T05:53:45.668Z,103203.50
2023-02-08T05:56:12.518Z,103204.56
2023-02-08T05:58:39.605Z,103210.03
2023-02-08T06:01:10.152Z,103214.59
2023-02-08T06:03:37.427Z,103209.56
2023-02-08T06:06:04.406Z,103209.66
2023-02-08T06:08:31.422Z,103205.53
2023-02-08T06:10:58.389Z,103207.28
2023-02-08T06:13:25.273Z,103209.06
2023-02-08T06:15:52.229Z,103194.34
2023-02-08T06:18:19.056Z,103200.47
2023-02-08T06:20:45.992Z,103206.44
2023-02-08T06:23:12.919Z,103197.63
2023-02-08T06:25:39.723Z,103196.72
2023-02-08T06:28:07.148Z,103192.38
2023-02-08T06:30:34.609Z,103198.63
2023-02-08T06:33:01.530Z,103192.69
2023-02-08T06:35:28.507Z,103189.97
2023-02-08T06:37:55.410Z,103178.81
2023-02-08T06:40:22.330Z,103183.03
2023-02-08T06:42:49.403Z,103183.78
2023-02-08T06:45:16.440Z,103186.31
2023-02-08T06:47:43.447Z,103180.22
2023-02-08T06:50:10.803Z,103187.00
2023-02-08T06:52:37.853Z,103190.50
2023-02-08T06:55:05.205Z,103183.66
2023-02-08T06:57:32.635Z,103184.56
2023-02-08T06:59:59.827Z,103188.91
2023-02-08T07:02:26.851Z,103178.50
2023-02-08T07:04:53.759Z,103177.72
2023-02-08T07:07:20.712Z,103180.38
2023-02-08T07:09:47.755Z,103183.91
2023-02-08T07:12:14.650Z,103182.31
2023-02-08T07:14:42.384Z,103178.94
2023-02-08T07:17:09.493Z,103179.84
2023-02-08T07:19:36.565Z,103177.22
2023-02-08T07:22:08.483Z,103186.78
2023-02-08T07:24:37.260Z,103186.78
2023-02-08T07:27:05.093Z,103182.31
2023-02-08T07:29:32.903Z,103176.34
2023-02-08T07:32:00.573Z,103176.34
2023-02-08T07:34:29.372Z,103171.06
2023-02-08T07:36:57.604Z,103173.66
2023-02-08T07:39:25.039Z,103177.19
2023-02-08T07:41:52.125Z,103175.28
2023-02-08T07:44:19.226Z,103172.69
2023-02-08T07:46:46.154Z,103170.13
2023-02-08T07:49:13.149Z,103162.19
2023-02-08T07:51:40.055Z,103163.84
2023-02-08T07:54:07.069Z,103163.16
2023-02-08T07:56:34.083Z,103162.31
2023-02-08T07:59:01.153Z,103172.88
2023-02-08T08:01:28.145Z,103169.41
2023-02-08T08:03:55.317Z,103169.47
2023-02-08T08:06:22.996Z,103172.19
2023-02-08T08:08:50.215Z,103171.22
2023-02-08T08:11:18.481Z,103177.19
2023-02-08T08:13:45.616Z,103175.31
2023-02-08T08:16:13.228Z,103167.31
2023-02-08T08:18:40.211Z,103157.47
2023-02-08T08:21:07.778Z,103163.41
2023-02-08T08:23:36.697Z,103157.25
2023-02-08T08:26:06.906Z,103157.25
2023-02-08T08:28:34.263Z,103159.88
2023-02-08T08:31:01.574Z,103156.25
2023-02-08T08:33:28.619Z,103168.94
2023-02-08T08:35:55.904Z,103166.84
2023-02-08T08:38:23.443Z,103167.63
2023-02-08T08:40:50.868Z,103173.69
2023-02-08T08:43:18.087Z,103161.84
2023-02-08T08:45:45.396Z,103163.75
2023-02-08T08:48:13.430Z,103165.41
2023-02-08T08:50:41.425Z,103151.84
2023-02-08T08:53:08.939Z,103158.16
2023-02-08T08:55:36.217Z,103165.31
2023-02-08T08:58:03.440Z,103168.81
2023-02-08T09:00:30.684Z,103166.25
2023-02-08T09:02:58.271Z,103160.19
2023-02-08T09:05:25.571Z,103162.78
2023-02-08T09:07:52.882Z,103159.28
2023-02-08T09:10:20.215Z,103165.13
2023-02-08T09:12:47.663Z,103156.13
2023-02-08T09:15:14.999Z,103153.28
2023-02-08T09:17:42.243Z,103155.66
2023-02-08T09:20:09.653Z,103160.53
2023-02-08T09:22:36.754Z,103153.19
2023-02-08T09:25:04.768Z,103146.03
2023-02-08T09:27:31.769Z,103143.88
2023-02-08T09:29:58.962Z,103137.66
2023-02-08T09:32:25.985Z,103135.66
2023-02-08T09:34:52.985Z,103148.47
2023-02-08T09:37:20.056Z,103139.47
2023-02-08T09:39:47.143Z,103140.09
2023-02-08T09:42:14.608Z,103135.47
2023-02-08T09:44:42.036Z,103129.06
2023-02-08T09:47:12.217Z,103134.88
2023-02-08T09:49:44.026Z,103145.13
2023-02-08T09:52:14.087Z,103144.09
2023-02-08T09:54:44.034Z,103150.63
2023-02-08T09:57:14.142Z,103151.31
2023-02-08T09:59:47.493Z,103150.22
2023-02-08T10:02:20.003Z,103158.66
2023-02-08T10:04:47.506Z,103159.44
2023-02-08T10:07:14.612Z,103164.53
2023-02-08T10:09:41.653Z,103163.47
2023-02-08T10:12:11.737Z,103157.06
2023-02-08T10:14:40.299Z,103159.50
2023-02-08T10:17:11.654Z,103160.19
2023-02-08T10:19:48.216Z,103164.38
2023-02-08T10:22:18.296Z,103161.00
2023-02-08T10:24:48.353Z,103160.84
2023-02-08T10:27:17.518Z,103157.25
2023-02-08T10:29:45.873Z,103168.41
2023-02-08T10:32:16.274Z,103153.44
2023-02-08T10:34:43.889Z,103154.94
2023-02-08T10:37:17.349Z,103146.13
2023-02-08T10:39:45.256Z,103148.59
2023-02-08T10:42:15.579Z,103149.28
2023-02-08T10:44:47.529Z,103148.31
2023-02-08T10:47:18.747Z,103142.88
2023-02-08T10:49:53.455Z,103134.97
2023-02-08T10:52:20.561Z,103145.28
2023-02-08T10:54:47.611Z,103142.53
2023-02-08T10:57:18.722Z,103142.38
2023-02-08T10:59:50.205Z,103137.00
2023-02-08T11:02:20.340Z,103129.78
2023-02-08T11:04:50.392Z,103132.34
2023-02-08T11:07:21.783Z,103130.41
2023-02-08T11:09:48.868Z,103122.50
2023-02-08T11:12:19.184Z,103128.31
2023-02-08T11:14:49.237Z,103121.09
2023-02-08T11:17:19.484Z,103119.94
2023-02-08T11:19:46.725Z,103113.78
2023-02-08T11:22:16.509Z,103113.63
2023-02-08T11:24:50.772Z,103113.41
2023-02-08T11:27:19.510Z,103108.88
2023-02-08T11:29:46.740Z,103100.56
2023-02-08T11:32:19.119Z,103104.59
2023-02-08T11:34:46.683Z,103106.06
2023-02-08T11:37:17.033Z,103110.16
2023-02-08T11:39:50.120Z,103101.22
2023-02-08T11:42:20.849Z,103095.81
2023-02-08T11:44:49.172Z,103092.88
2023-02-08T11:47:20.531Z,103090.81
2023-02-08T11:49:51.648Z,103097.59
2023-02-08T11:52:21.814Z,103092.22
2023-02-08T11:54:49.491Z,103089.50
2023-02-08T11:57:19.516Z,103086.63
2023-02-08T11:59:47.552Z,103074.13
2023-02-08T12:02:17.793Z,103070.34
2023-02-08T12:04:45.268Z,103064.88
2023-02-08T12:07:15.551Z,103060.41
2023-02-08T12:09:44.211Z,103050.47
2023-02-08T12:12:14.942Z,103043.19
2023-02-08T12:14:45.096Z,103036.09
2023-02-08T12:17:15.271Z,103037.72
2023-02-08T12:19:45.438Z,103025.34
2023-02-08T12:22:17.189Z,103027.91
2023-02-08T12:24:44.670Z,103023.31
2023-02-08T12:27:17.162Z,103007.38
2023-02-08T12:29:48.473Z,103010.66
2023-02-08T12:32:16.104Z,103009.63
2023-02-08T12:34:47.123Z,103005.13
2023-02-08T12:37:17.859Z,102999.44
2023-02-08T12:39:54.955Z,102994.03
2023-02-08T12:42:31.373Z,102981.66
2023-02-08T12:45:01.565Z,102978.72
2023-02-08T12:47:33.004Z,102976.66
2023-02-08T12:50:01.643Z,102979.88
2023-02-08T12:52:29.960Z,102962.19
2023-02-08T12:54:58.618Z,102955.72
2023-02-08T12:57:27.506Z,102956.50
2023-02-08T12:59:56.555Z,102955.31
2023-02-08T13:02:27.589Z,102954.00
2023-02-08T13:04:59.920Z,102950.94
2023-02-08T13:07:27.566Z,102944.31
2023-02-08T13:09:57.906Z,102939.28
2023-02-08T13:12:27.812Z,102929.81
2023-02-08T13:15:01.893Z,102923.25
2023-02-08T13:17:37.208Z,102919.50
2023-02-08T13:20:07.589Z,102923.44
2023-02-08T13:22:38.231Z,102922.59
2023-02-08T13:25:08.852Z,102910.41
2023-02-08T13:27:37.363Z,102906.75
2023-02-08T13:30:06.071Z,102893.63
2023-02-08T13:32:41.465Z,102887.44
2023-02-08T13:35:13.084Z,102886.28
2023-02-08T13:37:40.285Z,102884.16
2023-02-08T13:40:17.744Z,102877.75
2023-02-08T13:42:49.185Z,102879.31
2023-02-08T13:45:19.278Z,102872.94
2023-02-08T13:47:49.089Z,102865.72
2023-02-08T13:50:19.636Z,102862.25
2023-02-08T13:52:48.958Z,102851.72
2023-02-08T13:55:19.329Z,102848.06
2023-02-08T13:57:55.186Z,102853.22
2023-02-08T14:00:23.369Z,102845.25
2023-02-08T14:02:53.718Z,102835.91
2023-02-08T14:05:24.051Z,102840.16
2023-02-08T14:07:52.562Z,102841.81
2023-02-08T14:10:24.797Z,102839.94
2023-02-08T14:12:53.262Z,102835.31
2023-02-08T14:15:26.532Z,102836.81
2023-02-08T14:17:58.156Z,102830.63
2023-02-08T14:20:29.477Z,102833.06
2023-02-08T14:22:58.552Z,102838.97
2023-02-08T14:25:28.284Z,102833.69
2023-02-08T14:27:58.230Z,102832.84
2023-02-08T14:30:27.144Z,102821.50
2023-02-08T14:33:09.178Z,102814.53
2023-02-08T14:35:38.213Z,102808.44
2023-02-08T14:38:08.224Z,102807.63
2023-02-08T14:40:49.096Z,102811.19
2023-02-08T14:43:24.288Z,102803.38
2023-02-08T14:45:53.185Z,102797.19
2023-02-08T14:48:23.440Z,102793.63
2023-02-08T14:50:53.731Z,102787.22
2023-02-08T14:53:23.974Z,102774.78
2023-02-08T14:55:54.659Z,102781.84
2023-02-08T14:58:25.468Z,102775.84
2023-02-08T15:03:22.724Z,102773.44
2023-02-08T15:05:53.207Z,102762.91
2023-02-08T15:08:21.993Z,102773.31
2023-02-08T15:10:49.188Z,102755.03
2023-02-08T15:13:19.602Z,102759.44
2023-02-08T15:15:50.881Z,102762.25
2023-02-08T15:18:20.709Z,102751.72
2023-02-08T15:20:56.603Z,102761.41
2023-02-08T15:23:24.701Z,102757.91
2023-02-08T15:25:54.836Z,102757.13
2023-02-08T15:28:23.651Z,102748.69
2023-02-08T15:30:53.904Z,102745.28
2023-02-08T15:33:21.666Z,102746.31
2023-02-08T15:35:51.893Z,102742.03
2023-02-08T15:38:21.669Z,102733.94
2023-02-08T15:40:55.080Z,102742.03
2023-02-08T15:43:22.205Z,102741.28
2023-02-08T15:45:57.660Z,102742.34
2023-02-08T15:48:26.053Z,102732.09
2023-02-08T15:50:54.143Z,102743.47
2023-02-08T15:53:22.063Z,102735.69
2023-02-08T15:55:53.336Z,102732.22
2023-02-08T15:58:29.096Z,102737.56
2023-02-08T16:00:58.631Z,102734.19
2023-02-08T16:03:27.589Z,102736.09
2023-02-08T16:05:56.459Z,102738.72
2023-02-08T16:08:28.104Z,102733.75
2023-02-08T16:10:57.772Z,102733.94
2023-02-08T16:13:26.968Z,102727.13
2023-02-08T16:16:07.276Z,102723.84
2023-02-08T16:18:39.918Z,102718.88
2023-02-08T16:21:19.657Z,102722.63
2023-02-08T16:23:50.226Z,102722.84
2023-02-08T16:26:20.654Z,102716.00
2023-02-08T16:28:52.481Z,102722.47
2023-02-08T16:31:22.484Z,102730.66
2023-02-08T16:33:57.259Z,102728.03
2023-02-08T16:36:26.230Z,102726.44
2023-02-08T16:38:56.789Z,102727.59
2023-02-08T16:41:43.960Z,102725.13
2023-02-08T16:44:17.033Z,102725.25
2023-02-08T16:46:45.423Z,102726.28
2023-02-08T16:49:12.788Z,102721.13
2023-02-08T16:51:43.910Z,102720.38
2023-02-08T16:54:14.950Z,102722.91
2023-02-08T16:56:43.034Z,102721.41
2023-02-08T16:59:11.343Z,102716.53
2023-02-08T17:01:39.137Z,102709.88
2023-02-08T17:04:06.868Z,102697.88
2023-02-08T17:06:36.610Z,102699.03
2023-02-08T17:09:05.595Z,102707.84
2023-02-08T17:11:33.225Z,102709.53
2023-02-08T17:14:00.447Z,102702.69
2023-02-08T17:16:29.044Z,102707.41
2023-02-08T17:18:56.616Z,102709.34
2023-02-08T17:21:24.652Z,102706.91
2023-02-08T17:23:52.140Z,102715.94
2023-02-08T17:26:22.861Z,102714.41
2023-02-08T17:28:55.657Z,102716.47
2023-02-08T17:31:23.909Z,102727.06
2023-02-08T17:33:51.768Z,102714.03
2023-02-08T17:36:19.584Z,102721.91
2023-02-08T17:38:47.358Z,102714.97
2023-02-08T17:41:16.392Z,102715.09
2023-02-08T17:43:44.178Z,102707.22
2023-02-08T17:46:14.800Z,102717.03
2023-02-08T17:48:42.559Z,102711.13
2023-02-08T17:51:11.225Z,102712.13
2023-02-08T17:53:41.393Z,102714.88
2023-02-08T17:56:11.853Z,102714.03
2023-02-08T17:58:39.496Z,102708.03
2023-02-08T18:01:07.708Z,102701.75
2023-02-08T18:03:35.430Z,102703.53
2023-02-08T18:06:02.723Z,102702.91
2023-02-08T18:08:30.102Z,102707.38
2023-02-08T18:11:02.723Z,102701.56
2023-02-08T18:13:30.212Z,102700.06
2023-02-08T18:15:57.812Z,102705.31
2023-02-08T18:18:25.276Z,102701.00
2023-02-08T18:20:52.546Z,102699.34
2023-02-08T18:23:20.043Z,102709.03
2023-02-08T18:25:47.685Z,102709.19
2023-02-08T18:28:17.093Z,102709.38
2023-02-08T18:30:44.920Z,102714.78
2023-02-08T18:33:14.241Z,102709.72
2023-02-08T18:35:42.116Z,102710.84
2023-02-08T18:38:09.458Z,102708.41
2023-02-08T18:40:36.869Z,102705.03
2023-02-08T18:43:04.217Z,102712.13
2023-02-08T18:45:31.427Z,102716.53
2023-02-08T18:47:59.341Z,102710.44
2023-02-08T18:50:26.787Z,102712.34
2023-02-08T18:52:54.236Z,102712.41
2023-02-08T18:55:21.594Z,102709.97
2023-02-08T18:57:48.911Z,102713.69
2023-02-08T19:00:16.639Z,102713.34
2023-02-08T19:02:45.757Z,102716.06
2023-02-08T19:05:12.915Z,102718.50
2023-02-08T19:07:40.636Z,102721.19
2023-02-08T19:10:08.121Z,102719.69
2023-02-08T19:12:36.042Z,102714.53
2023-02-08T19:15:03.308Z,102719.03
2023-02-08T19:17:30.537Z,102714.81
2023-02-08T19:19:57.740Z,102709.66
2023-02-08T19:22:24.934Z,102713.09
2023-02-08T19:24:52.207Z,102708.25
2023-02-08T19:27:19.350Z,102699.88
2023-02-08T19:29:46.697Z,102699.88
2023-02-08T19:32:14.012Z,102694.66
2023-02-08T19:34:42.041Z,102689.56
2023-02-08T19:37:09.157Z,102687.13
2023-02-08T19:39:36.285Z,102680.31
2023-02-08T19:42:03.240Z,102682.50
2023-02-08T19:44:30.836Z,102680.16
2023-02-08T19:46:58.705Z,102685.19
2023-02-08T19:49:26.557Z,102690.53
2023-02-08T19:51:53.624Z,102689.78
2023-02-08T19:54:21.090Z,102701.28
2023-02-08T19:56:50.672Z,102689.19
2023-02-08T19:59:19.671Z,102702.38
2023-02-08T20:01:47.034Z,102695.53
2023-02-08T20:04:14.765Z,102689.53
2023-02-08T20:06:42.302Z,102693.91
2023-02-08T20:09:09.375Z,102683.56
2023-02-08T20:11:45.073Z,102686.25
2023-02-08T20:14:23.370Z,102678.47
2023-02-08T20:16:51.099Z,102681.00
2023-02-08T20:19:19.841Z,102676.69
2023-02-08T20:21:47.803Z,102689.06
2023-02-08T20:24:16.208Z,102691.16
2023-02-08T20:26:44.804Z,102691.41
2023-02-08T20:29:12.302Z,102688.88
2023-02-08T20:31:41.362Z,102683.72
2023-02-08T20:34:09.326Z,102679.50
2023-02-08T20:36:41.043Z,102678.47
2023-02-08T20:39:09.618Z,102679.59
2023-02-08T20:41:38.632Z,102674.34
2023-02-08T20:44:05.711Z,102674.47
2023-02-08T20:46:35.057Z,102669.22
2023-02-08T20:49:03.230Z,102658.84
2023-02-08T20:51:30.915Z,102662.38
2023-02-08T20:53:58.690Z,102667.59
2023-02-08T20:56:27.191Z,102664.22
2023-02-08T20:58:55.646Z,102653.75
2023-02-08T21:01:25.519Z,102644.31
2023-02-08T21:03:54.531Z,102642.63
2023-02-08T21:06:23.276Z,102648.03
2023-02-08T21:08:53.336Z,102647.25
2023-02-08T21:11:21.332Z,102656.13
2023-02-08T21:13:48.551Z,102648.38
2023-02-08T21:16:16.944Z,102659.69
2023-02-08T21:18:44.500Z,102672.31
2023-02-08T21:21:12.276Z,102680.94
2023-02-08T21:23:39.674Z,102675.72
2023-02-08T21:26:07.912Z,102671.41
2023-02-08T21:28:35.297Z,102666.94
2023-02-08T21:31:04.740Z,102671.25
2023-02-08T21:33:32.940Z,102670.41
2023-02-08T21:36:03.612Z,102673.09
2023-02-08T21:38:31.120Z,102671.41
2023-02-08T21:40:58.692Z,102673.28
2023-02-08T21:43:26.321Z,102666.44
2023-02-08T21:45:54.140Z,102662.22
2023-02-08T21:48:22.115Z,102658.66
2023-02-08T21:50:52.456Z,102652.56
2023-02-08T21:53:22.670Z,102657.81
2023-02-08T21:55:49.773Z,102651.75
2023-02-08T21:58:16.794Z,102648.28
2023-02-08T22:00:44.504Z,102641.44
2023-02-08T22:03:11.785Z,102646.06
2023-02-08T22:05:38.925Z,102647.19
2023-02-08T22:08:06.287Z,102642.28
2023-02-08T22:10:33.333Z,102652.66
2023-02-08T22:13:00.461Z,102639.50
2023-02-08T22:15:28.748Z,102651.81
2023-02-08T22:17:56.539Z,102637.03
2023-02-08T22:20:23.659Z,102623.22
2023-02-08T22:22:54.861Z,102620.00
2023-02-08T22:25:22.518Z,102627.16
2023-02-08T22:27:49.733Z,102626.31
2023-02-08T22:30:17.463Z,102623.94
2023-02-08T22:32:45.346Z,102627.50
2023-02-08T22:35:12.994Z,102632.72
2023-02-08T22:37:40.508Z,102630.94
2023-02-08T22:40:08.497Z,102630.88
2023-02-08T22:42:35.419Z,102623.94
2023-02-08T22:45:02.421Z,102620.50
2023-02-08T22:47:29.390Z,102619.66
2023-02-08T22:49:57.745Z,102612.66
2023-02-08T22:52:26.028Z,102621.50
2023-02-08T22:54:53.651Z,102616.22
2023-02-08T22:57:20.925Z,102630.88
2023-02-08T22:59:48.125Z,102622.38
2023-02-08T23:02:17.931Z,102622.38
2023-02-08T23:04:45.016Z,102620.75
2023-02-08T23:07:12.107Z,102625.06
2023-02-08T23:09:39.003Z,102631.19
2023-02-08T23:12:06.220Z,102632.38
2023-02-08T23:14:34.391Z,102625.81
2023-02-08T23:17:01.560Z,102631.09
2023-02-08T23:19:29.048Z,102625.09
2023-02-08T23:21:59.664Z,102625.09
2023-02-08T23:24:26.861Z,102622.59
2023-02-08T23:26:54.040Z,102625.19
2023-02-08T23:29:21.110Z,102629.72
2023-02-08T23:31:48.200Z,102622.91
2023-02-08T23:34:15.263Z,102622.91
2023-02-08T23:36:42.326Z,102625.75
2023-02-08T23:39:12.284Z,102634.53
2023-02-08T23:41:39.198Z,102625.59
2023-02-08T23:44:06.211Z,102623.75
2023-02-08T23:46:33.116Z,102629.06
2023-02-08T23:48:59.981Z,102621.22
2023-02-08T23:51:27.185Z,102609.91
2023-02-08T23:53:54.475Z,102608.22
2023-02-08T23:56:24.363Z,102607.47
2023-02-08T23:58:52.959Z,102598.84
